createdAt,value
2019-02-27T00:01:10.569Z,10.20
2019-02-27T00:03:39.778Z,10.10
2019-02-27T00:06:12.887Z,10.00
2019-02-27T00:08:43.690Z,9.80
2019-02-27T00:11:14.489Z,9.60
2019-02-27T00:13:46.168Z,9.60
2019-02-27T00:16:15.828Z,9.50
2019-02-27T00:18:45.168Z,9.40
2019-02-27T00:21:14.647Z,9.30
2019-02-27T00:23:43.988Z,9.20
2019-02-27T00:26:14.170Z,9.10
2019-02-27T00:28:46.767Z,9.00
2019-02-27T00:31:15.912Z,8.90
2019-02-27T00:33:45.687Z,8.80
2019-02-27T00:36:15.449Z,8.70
2019-02-27T00:38:45.108Z,8.60
2019-02-27T00:41:14.428Z,8.50
2019-02-27T00:43:47.011Z,8.40
2019-02-27T00:46:16.688Z,8.40
2019-02-27T00:48:45.927Z,8.40
2019-02-27T00:51:15.287Z,8.40
2019-02-27T00:53:44.749Z,8.40
2019-02-27T00:56:13.848Z,8.30
2019-02-27T00:58:44.810Z,8.40
2019-02-27T01:01:14.736Z,8.40
2019-02-27T01:03:44.542Z,8.50
2019-02-27T01:06:14.624Z,8.50
2019-02-27T01:08:44.538Z,8.50
2019-02-27T01:11:18.122Z,8.50
2019-02-27T01:13:45.088Z,8.50
2019-02-27T01:16:16.968Z,8.40
2019-02-27T01:18:45.880Z,8.40
2019-02-27T01:21:18.937Z,8.40
2019-02-27T01:23:46.328Z,8.40
2019-02-27T01:26:15.909Z,8.30
2019-02-27T01:28:45.642Z,8.30
2019-02-27T01:31:15.207Z,8.30
2019-02-27T01:33:44.769Z,8.50
2019-02-27T01:36:14.507Z,8.50
2019-02-27T01:38:43.949Z,8.60
2019-02-27T01:41:13.669Z,8.60
2019-02-27T01:43:42.892Z,8.60
2019-02-27T01:46:12.335Z,8.60
2019-02-27T01:48:43.860Z,8.50
2019-02-27T01:51:13.687Z,8.50
2019-02-27T01:53:43.163Z,8.50
2019-02-27T01:56:12.708Z,8.50
2019-02-27T01:58:44.292Z,8.50
2019-02-27T02:01:12.932Z,8.50
2019-02-27T02:03:42.168Z,8.60
2019-02-27T02:06:11.497Z,8.60
2019-02-27T02:08:40.828Z,8.60
2019-02-27T02:11:10.127Z,8.50
2019-02-27T02:13:48.906Z,8.70
2019-02-27T02:16:26.828Z,8.90
2019-02-27T02:19:21.967Z,8.90
2019-02-27T02:21:57.468Z,8.90
2019-02-27T02:24:47.447Z,8.90
2019-02-27T02:27:25.411Z,8.80
2019-02-27T02:29:57.847Z,8.80
2019-02-27T02:32:59.388Z,8.70
2019-02-27T02:36:07.274Z,8.60
2019-02-27T02:38:58.009Z,8.50
2019-02-27T02:41:48.248Z,8.50
2019-02-27T02:44:26.788Z,8.40
2019-02-27T02:47:06.429Z,8.50
2019-02-27T02:49:44.161Z,8.50
2019-02-27T02:52:28.698Z,8.40
2019-02-27T02:55:16.032Z,8.40
2019-02-27T02:58:11.369Z,8.20
2019-02-27T03:01:14.079Z,8.20
2019-02-27T03:04:14.181Z,8.30
2019-02-27T03:07:00.934Z,8.30
2019-02-27T03:09:57.812Z,8.30
2019-02-27T03:12:48.151Z,8.30
2019-02-27T03:15:35.771Z,8.10
2019-02-27T03:18:30.809Z,8.10
2019-02-27T03:21:12.408Z,7.90
2019-02-27T03:26:56.408Z,7.70
2019-02-27T03:29:40.204Z,7.60
2019-02-27T03:32:12.188Z,7.50
2019-02-27T03:35:12.950Z,7.40
2019-02-27T03:37:53.328Z,7.30
2019-02-27T03:40:50.189Z,7.30
2019-02-27T03:43:33.708Z,7.30
2019-02-27T03:46:11.928Z,7.30
2019-02-27T03:49:04.689Z,7.30
2019-02-27T03:51:59.902Z,7.30
2019-02-27T03:54:35.607Z,7.50
2019-02-27T03:57:28.049Z,7.60
2019-02-27T04:00:21.306Z,7.60
2019-02-27T04:03:02.181Z,7.90
2019-02-27T04:06:00.077Z,7.70
2019-02-27T04:08:56.396Z,7.70
2019-02-27T04:11:26.404Z,7.60
2019-02-27T04:14:29.417Z,7.60
2019-02-27T04:17:05.139Z,7.90
2019-02-27T04:19:30.015Z,8.00
2019-02-27T04:22:01.286Z,8.00
2019-02-27T04:24:30.197Z,8.10
2019-02-27T04:26:59.674Z,8.20
2019-02-27T04:29:29.065Z,8.20
2019-02-27T04:32:02.656Z,8.10
2019-02-27T04:34:33.192Z,8.10
2019-02-27T04:37:03.256Z,8.20
2019-02-27T04:39:32.294Z,8.30
2019-02-27T04:42:01.372Z,8.20
2019-02-27T04:44:30.588Z,8.10
2019-02-27T04:47:01.268Z,8.10
2019-02-27T04:49:30.491Z,7.90
2019-02-27T04:51:59.767Z,7.80
2019-02-27T04:54:29.287Z,7.60
2019-02-27T04:56:58.916Z,7.30
2019-02-27T04:59:28.090Z,7.10
2019-02-27T05:01:57.673Z,7.00
2019-02-27T05:04:27.040Z,6.90
2019-02-27T05:06:56.600Z,7.00
2019-02-27T05:09:26.357Z,7.20
2019-02-27T05:11:55.933Z,7.30
2019-02-27T05:14:27.467Z,7.40
2019-02-27T05:16:56.733Z,7.30
2019-02-27T05:19:26.314Z,7.20
2019-02-27T05:21:55.415Z,7.00
2019-02-27T05:24:24.774Z,6.90
2019-02-27T05:26:54.396Z,6.90
2019-02-27T05:29:23.689Z,6.90
2019-02-27T05:31:54.647Z,6.80
2019-02-27T05:34:24.128Z,6.80
2019-02-27T05:36:53.508Z,6.70
2019-02-27T05:39:26.167Z,6.60
2019-02-27T05:41:55.533Z,6.60
2019-02-27T05:44:24.952Z,6.60
2019-02-27T05:46:54.808Z,6.50
2019-02-27T05:49:26.644Z,6.40
2019-02-27T05:51:55.287Z,6.30
2019-02-27T05:54:24.730Z,6.10
2019-02-27T05:56:54.110Z,5.90
2019-02-27T05:59:36.047Z,5.80
2019-02-27T06:02:05.596Z,6.00
2019-02-27T06:04:34.598Z,6.20
2019-02-27T06:07:08.457Z,6.40
2019-02-27T06:09:41.421Z,6.70
2019-02-27T06:12:15.448Z,7.00
2019-02-27T06:14:47.407Z,7.90
2019-02-27T06:17:16.567Z,9.60
2019-02-27T06:19:45.687Z,11.00
2019-02-27T06:22:14.688Z,12.00
2019-02-27T06:24:45.736Z,13.00
2019-02-27T06:27:14.856Z,13.30
2019-02-27T06:29:45.703Z,14.00
2019-02-27T06:32:14.726Z,15.00
2019-02-27T06:34:44.408Z,16.00
2019-02-27T06:37:15.511Z,16.70
2019-02-27T06:39:44.667Z,17.00
2019-02-27T06:42:14.201Z,16.90
2019-02-27T06:44:43.478Z,17.40
2019-02-27T06:47:12.676Z,18.10
2019-02-27T06:49:42.389Z,18.70
2019-02-27T06:52:13.269Z,18.00
2019-02-27T06:54:42.747Z,19.00
2019-02-27T06:57:11.968Z,18.40
2019-02-27T06:59:41.336Z,17.80
2019-02-27T07:02:10.694Z,18.30
2019-02-27T07:07:09.873Z,20.90
2019-02-27T07:09:39.292Z,20.80
2019-02-27T07:12:08.739Z,21.10
2019-02-27T07:14:39.101Z,21.50
2019-02-27T07:17:12.692Z,19.10
2019-02-27T07:19:42.088Z,17.40
2019-02-27T07:22:12.673Z,16.60
2019-02-27T07:24:42.749Z,15.90
2019-02-27T07:27:11.867Z,15.90
2019-02-27T07:29:42.947Z,16.40
2019-02-27T07:32:12.180Z,17.60
2019-02-27T07:34:41.587Z,17.90
2019-02-27T07:37:12.933Z,18.00
2019-02-27T07:39:41.548Z,17.90
2019-02-27T07:42:10.745Z,18.70
2019-02-27T07:44:42.190Z,19.90
2019-02-27T07:47:12.389Z,19.40
2019-02-27T07:49:41.582Z,20.30
2019-02-27T07:52:12.275Z,22.40
2019-02-27T07:54:41.367Z,22.90
2019-02-27T07:57:10.507Z,20.60
2019-02-27T07:59:39.768Z,18.70
2019-02-27T08:02:08.934Z,17.10
2019-02-27T08:04:38.313Z,15.60
2019-02-27T08:07:12.359Z,14.50
2019-02-27T08:09:40.993Z,13.60
2019-02-27T08:12:10.095Z,12.90
2019-02-27T08:14:39.494Z,12.40
2019-02-27T08:17:17.399Z,12.00
2019-02-27T08:19:42.835Z,11.70
2019-02-27T08:22:15.775Z,11.60
2019-02-27T08:24:44.887Z,11.40
2019-02-27T08:27:15.947Z,11.10
2019-02-27T08:29:45.008Z,10.90
2019-02-27T08:32:16.447Z,10.70
2019-02-27T08:34:45.947Z,10.60
2019-02-27T08:37:15.535Z,10.50
2019-02-27T08:39:45.068Z,10.40
2019-02-27T08:42:16.170Z,10.40
2019-02-27T08:44:45.799Z,10.40
2019-02-27T08:47:16.100Z,10.50
2019-02-27T08:49:45.473Z,10.70
2019-02-27T08:52:18.028Z,10.70
2019-02-27T08:54:47.271Z,10.60
2019-02-27T08:57:16.588Z,10.60
2019-02-27T08:59:45.847Z,10.60
2019-02-27T09:02:16.388Z,10.70
2019-02-27T09:04:46.127Z,10.80
2019-02-27T09:07:15.387Z,10.70
2019-02-27T09:09:51.202Z,10.70
2019-02-27T09:12:16.788Z,10.70
2019-02-27T09:14:45.996Z,10.60
2019-02-27T09:17:15.250Z,10.70
2019-02-27T09:19:45.672Z,10.80
2019-02-27T09:22:15.348Z,10.90
2019-02-27T09:24:46.807Z,10.90
2019-02-27T09:27:19.226Z,11.00
2019-02-27T09:29:49.387Z,11.10
2019-02-27T09:32:20.410Z,11.20
2019-02-27T09:34:49.669Z,11.30
2019-02-27T09:37:34.287Z,11.30
2019-02-27T09:40:05.714Z,11.30
2019-02-27T09:42:36.526Z,11.30
2019-02-27T09:45:08.260Z,11.30
2019-02-27T09:47:38.404Z,11.40
2019-02-27T09:50:08.089Z,11.50
2019-02-27T09:52:37.210Z,11.40
2019-02-27T09:55:07.289Z,11.50
2019-02-27T09:57:36.775Z,11.50
2019-02-27T10:00:28.858Z,11.50
2019-02-27T10:02:58.303Z,11.60
2019-02-27T10:05:30.711Z,11.70
2019-02-27T10:07:59.879Z,11.90
2019-02-27T10:10:32.272Z,11.90
2019-02-27T10:13:03.346Z,11.80
2019-02-27T10:15:34.327Z,11.80
2019-02-27T10:18:13.003Z,11.80
2019-02-27T10:20:42.227Z,11.80
2019-02-27T10:23:14.468Z,11.90
2019-02-27T10:25:44.104Z,11.70
2019-02-27T10:28:13.529Z,11.70
2019-02-27T10:30:42.588Z,11.80
2019-02-27T10:33:11.921Z,11.90
2019-02-27T10:35:41.522Z,12.00
2019-02-27T10:38:10.485Z,12.10
2019-02-27T10:40:41.514Z,12.00
2019-02-27T10:43:10.832Z,12.00
2019-02-27T10:45:39.916Z,12.10
2019-02-27T10:48:09.346Z,12.20
2019-02-27T10:50:38.592Z,12.20
2019-02-27T10:53:07.795Z,12.30
2019-02-27T10:55:37.053Z,12.30
2019-02-27T10:58:07.677Z,12.30
2019-02-27T11:00:37.179Z,12.40
2019-02-27T11:03:06.384Z,12.40
2019-02-27T11:05:37.821Z,12.50
2019-02-27T11:08:07.080Z,12.40
2019-02-27T11:10:36.281Z,12.50
2019-02-27T11:13:06.662Z,12.60
2019-02-27T11:15:41.166Z,12.80
2019-02-27T11:18:07.682Z,13.00
2019-02-27T11:20:37.001Z,13.20
2019-02-27T11:23:07.588Z,13.10
2019-02-27T11:25:39.497Z,13.10
2019-02-27T11:28:11.793Z,13.20
2019-02-27T11:30:43.361Z,13.10
2019-02-27T11:33:25.550Z,13.20
2019-02-27T11:35:47.412Z,13.30
2019-02-27T11:38:16.420Z,13.30
2019-02-27T11:40:45.458Z,13.30
2019-02-27T11:43:17.274Z,13.30
2019-02-27T11:45:46.754Z,13.30
2019-02-27T11:48:17.435Z,13.30
2019-02-27T11:50:48.235Z,13.30
2019-02-27T11:53:17.472Z,13.30
2019-02-27T11:55:48.095Z,13.30
2019-02-27T11:58:17.293Z,13.40
2019-02-27T12:00:46.313Z,13.40
2019-02-27T12:03:15.504Z,13.40
2019-02-27T12:05:44.733Z,13.40
2019-02-27T12:08:14.112Z,13.50
2019-02-27T12:10:46.171Z,13.70
2019-02-27T12:13:15.618Z,13.70
2019-02-27T12:15:44.618Z,13.80
2019-02-27T12:18:14.158Z,13.80
2019-02-27T12:20:55.847Z,13.90
2019-02-27T12:23:25.315Z,13.80
2019-02-27T12:25:56.107Z,13.80
2019-02-27T12:28:25.729Z,13.80
2019-02-27T12:30:54.894Z,13.90
2019-02-27T12:33:24.217Z,13.90
2019-02-27T12:35:56.421Z,13.90
2019-02-27T12:38:26.001Z,13.90
2019-02-27T12:40:58.431Z,14.00
2019-02-27T12:43:31.501Z,13.90
2019-02-27T12:46:01.635Z,13.90
2019-02-27T12:48:31.233Z,14.00
2019-02-27T12:51:03.689Z,14.00
2019-02-27T12:53:31.850Z,14.10
2019-02-27T12:56:01.082Z,14.20
2019-02-27T12:58:33.924Z,14.20
2019-02-27T13:01:03.379Z,14.30
2019-02-27T13:03:32.639Z,14.40
2019-02-27T13:06:02.174Z,14.50
2019-02-27T13:08:31.616Z,14.50
2019-02-27T13:11:01.098Z,14.50
2019-02-27T13:13:30.537Z,14.50
2019-02-27T13:16:00.181Z,14.50
2019-02-27T13:18:32.040Z,14.60
2019-02-27T13:21:01.484Z,14.60
2019-02-27T13:23:36.376Z,14.60
2019-02-27T13:26:05.008Z,14.60
2019-02-27T13:28:40.138Z,14.60
2019-02-27T13:31:09.922Z,14.60
2019-02-27T13:33:39.263Z,14.70
2019-02-27T13:36:09.051Z,14.60
2019-02-27T13:38:45.342Z,14.60
2019-02-27T13:41:15.576Z,14.60
2019-02-27T13:43:48.358Z,14.60
2019-02-27T13:46:20.134Z,14.60
2019-02-27T13:49:13.784Z,14.60
2019-02-27T13:51:42.147Z,14.60
2019-02-27T13:54:11.826Z,14.70
2019-02-27T13:56:42.001Z,14.70
2019-02-27T13:59:11.786Z,14.70
2019-02-27T14:01:41.268Z,14.80
2019-02-27T14:04:10.909Z,14.70
2019-02-27T14:06:43.386Z,14.80
2019-02-27T14:09:14.590Z,14.80
2019-02-27T14:11:43.827Z,14.80
2019-02-27T14:14:15.145Z,14.80
2019-02-27T14:16:43.862Z,14.80
2019-02-27T14:19:15.993Z,14.80
2019-02-27T14:21:45.046Z,14.70
2019-02-27T14:24:14.442Z,14.70
2019-02-27T14:26:43.722Z,14.70
2019-02-27T14:29:14.643Z,14.60
2019-02-27T14:31:44.190Z,14.70
2019-02-27T14:34:13.483Z,14.70
2019-02-27T14:36:43.112Z,14.80
2019-02-27T14:39:14.692Z,14.80
2019-02-27T14:41:47.908Z,14.80
2019-02-27T14:44:14.985Z,14.80
2019-02-27T14:46:47.354Z,14.90
2019-02-27T14:49:16.669Z,14.80
2019-02-27T14:51:49.868Z,14.80
2019-02-27T14:54:19.614Z,14.80
2019-02-27T14:56:49.539Z,14.80
2019-02-27T14:59:19.405Z,14.90
2019-02-27T15:01:49.425Z,14.90
2019-02-27T15:04:18.875Z,14.90
2019-02-27T15:06:50.342Z,14.90
2019-02-27T15:09:26.172Z,14.90
2019-02-27T15:11:57.063Z,14.80
2019-02-27T15:14:31.075Z,14.90
2019-02-27T15:17:00.849Z,14.80
2019-02-27T15:19:30.725Z,14.80
2019-02-27T15:22:00.350Z,14.80
2019-02-27T15:24:31.960Z,14.80
2019-02-27T15:27:00.997Z,14.70
2019-02-27T15:29:42.681Z,14.70
2019-02-27T15:32:11.853Z,14.70
2019-02-27T15:34:48.641Z,14.60
2019-02-27T15:37:18.932Z,14.60
2019-02-27T15:39:48.220Z,14.60
2019-02-27T15:42:17.933Z,14.60
2019-02-27T15:44:47.413Z,14.50
2019-02-27T15:47:17.095Z,14.50
2019-02-27T15:49:48.759Z,14.40
2019-02-27T15:52:17.435Z,14.40
2019-02-27T15:54:46.870Z,14.40
2019-02-27T15:57:19.169Z,14.30
2019-02-27T15:59:48.892Z,14.20
2019-02-27T16:02:18.671Z,14.10
2019-02-27T16:04:47.819Z,14.10
2019-02-27T16:07:17.213Z,14.00
2019-02-27T16:09:50.573Z,14.00
2019-02-27T16:12:19.979Z,13.90
2019-02-27T16:14:49.516Z,13.80
2019-02-27T16:17:21.712Z,13.70
2019-02-27T16:19:51.021Z,13.60
2019-02-27T16:22:20.437Z,13.60
2019-02-27T16:24:49.551Z,13.50
2019-02-27T16:27:18.579Z,13.40
2019-02-27T16:29:47.909Z,13.30
2019-02-27T16:32:17.370Z,13.20
2019-02-27T16:34:47.988Z,13.20
2019-02-27T16:37:22.798Z,13.10
2019-02-27T16:39:49.573Z,13.00
2019-02-27T16:42:18.750Z,12.80
2019-02-27T16:44:48.053Z,12.70
2019-02-27T16:47:19.926Z,12.60
2019-02-27T16:49:50.407Z,12.50
2019-02-27T16:52:19.291Z,12.40
2019-02-27T16:54:50.665Z,12.30
2019-02-27T16:57:24.150Z,12.20
2019-02-27T16:59:51.035Z,12.10
2019-02-27T17:02:20.256Z,12.00
2019-02-27T17:04:49.395Z,11.90
2019-02-27T17:07:18.836Z,11.80
2019-02-27T17:09:50.546Z,11.70
2019-02-27T17:12:26.909Z,11.60
2019-02-27T17:15:01.113Z,11.60
2019-02-27T17:17:37.339Z,11.50
2019-02-27T17:20:12.525Z,11.50
2019-02-27T17:22:45.418Z,11.40
2019-02-27T17:25:15.376Z,11.40
2019-02-27T17:27:49.947Z,11.30
2019-02-27T17:30:37.761Z,11.20
2019-02-27T17:33:05.460Z,11.20
2019-02-27T17:35:38.114Z,11.10
2019-02-27T17:38:07.450Z,11.10
2019-02-27T17:40:37.812Z,11.00
2019-02-27T17:43:08.718Z,11.00
2019-02-27T17:45:37.835Z,10.90
2019-02-27T17:48:09.249Z,10.90
2019-02-27T17:50:38.175Z,10.80
2019-02-27T17:53:07.692Z,10.80
2019-02-27T17:55:42.551Z,10.80
2019-02-27T17:58:12.057Z,10.70
2019-02-27T18:01:04.674Z,10.90
2019-02-27T18:03:36.620Z,10.90
2019-02-27T18:06:05.612Z,10.60
2019-02-27T18:08:34.833Z,10.60
2019-02-27T18:11:04.341Z,10.50
2019-02-27T18:13:36.134Z,10.40
2019-02-27T18:16:04.652Z,10.40
2019-02-27T18:18:33.849Z,10.30
2019-02-27T18:21:03.134Z,10.30
2019-02-27T18:23:32.171Z,10.20
2019-02-27T18:26:01.692Z,10.20
2019-02-27T18:28:33.076Z,10.20
2019-02-27T18:31:01.754Z,10.10
2019-02-27T18:33:39.134Z,10.10
2019-02-27T18:36:08.467Z,10.10
2019-02-27T18:38:37.518Z,10.10
2019-02-27T18:41:08.798Z,10.00
2019-02-27T18:43:37.927Z,10.00
2019-02-27T18:46:07.340Z,10.00
2019-02-27T18:48:43.537Z,10.00
2019-02-27T18:51:09.559Z,10.00
2019-02-27T18:53:38.800Z,10.00
2019-02-27T18:56:08.638Z,9.90
2019-02-27T18:58:38.151Z,9.90
2019-02-27T19:01:09.858Z,9.80
2019-02-27T19:06:34.469Z,9.80
2019-02-27T19:09:05.049Z,9.80
2019-02-27T19:11:34.208Z,9.70
2019-02-27T19:16:38.555Z,9.70
2019-02-27T19:19:09.635Z,9.80
2019-02-27T19:21:38.978Z,9.80
2019-02-27T19:24:14.455Z,9.90
2019-02-27T19:26:45.872Z,9.90
2019-02-27T19:29:15.992Z,9.80
2019-02-27T19:31:48.286Z,9.90
2019-02-27T19:34:16.377Z,9.80
2019-02-27T19:36:45.747Z,9.80
2019-02-27T19:39:14.975Z,9.90
2019-02-27T19:41:45.635Z,9.90
2019-02-27T19:44:14.995Z,9.90
2019-02-27T19:46:47.481Z,9.80
2019-02-27T19:49:15.648Z,9.70
2019-02-27T19:51:45.182Z,9.60
2019-02-27T19:54:14.868Z,9.70
2019-02-27T19:56:45.211Z,9.60
2019-02-27T19:59:14.713Z,9.50
2019-02-27T20:01:49.135Z,9.50
2019-02-27T20:04:17.589Z,9.40
2019-02-27T20:06:47.409Z,9.30
2019-02-27T20:09:20.092Z,9.30
2019-02-27T20:11:49.208Z,9.20
2019-02-27T20:14:20.482Z,9.20
2019-02-27T20:16:54.970Z,9.20
2019-02-27T20:19:22.574Z,9.30
2019-02-27T20:21:52.349Z,9.30
2019-02-27T20:24:32.453Z,9.30
2019-02-27T20:27:01.955Z,9.20
2019-02-27T20:29:39.478Z,9.10
2019-02-27T20:32:10.254Z,8.90
2019-02-27T20:34:39.458Z,8.80
2019-02-27T20:37:08.916Z,8.80
2019-02-27T20:39:38.030Z,8.80
2019-02-27T20:42:07.142Z,8.70
2019-02-27T20:44:37.492Z,8.70
2019-02-27T20:47:07.293Z,8.70
2019-02-27T20:49:36.721Z,8.50
2019-02-27T20:52:06.154Z,8.30
2019-02-27T20:54:35.643Z,8.30
2019-02-27T20:57:08.164Z,8.20
2019-02-27T20:59:36.094Z,8.20
2019-02-27T21:02:08.414Z,8.20
2019-02-27T21:04:39.156Z,8.20
2019-02-27T21:07:08.542Z,8.10
2019-02-27T21:09:37.832Z,8.10
2019-02-27T21:12:08.720Z,8.00
2019-02-27T21:14:38.073Z,8.00
2019-02-27T21:17:09.853Z,8.00
2019-02-27T21:19:38.913Z,7.90
2019-02-27T21:22:09.790Z,7.90
2019-02-27T21:24:40.487Z,7.90
2019-02-27T21:27:11.104Z,7.90
2019-02-27T21:29:43.365Z,7.90
2019-02-27T21:32:11.289Z,7.80
2019-02-27T21:34:40.667Z,7.80
2019-02-27T21:37:24.229Z,7.70
2019-02-27T21:39:53.907Z,7.60
2019-02-27T21:42:23.068Z,7.60
2019-02-27T21:44:52.893Z,7.50
2019-02-27T21:47:22.231Z,7.50
2019-02-27T21:49:53.290Z,7.40
2019-02-27T21:52:22.708Z,7.50
2019-02-27T21:54:51.868Z,7.50
2019-02-27T21:57:22.897Z,7.60
2019-02-27T21:59:53.048Z,7.60
2019-02-27T22:02:24.053Z,7.60
2019-02-27T22:04:55.005Z,7.50
2019-02-27T22:07:24.332Z,7.40
2019-02-27T22:09:54.230Z,7.30
2019-02-27T22:12:23.752Z,7.20
2019-02-27T22:14:54.892Z,7.00
2019-02-27T22:17:24.107Z,7.00
2019-02-27T22:19:54.652Z,6.90
2019-02-27T22:22:24.729Z,6.80
2019-02-27T22:24:55.529Z,6.70
2019-02-27T22:27:24.887Z,6.60
2019-02-27T22:29:55.851Z,6.60
2019-02-27T22:32:25.247Z,6.60
2019-02-27T22:34:54.228Z,6.70
2019-02-27T22:37:23.427Z,6.80
2019-02-27T22:39:53.206Z,6.80
2019-02-27T22:42:22.428Z,6.80
2019-02-27T22:44:51.576Z,6.80
2019-02-27T22:47:21.653Z,6.70
2019-02-27T22:49:51.787Z,6.50
2019-02-27T22:52:20.955Z,6.50
2019-02-27T22:54:50.449Z,6.50
2019-02-27T22:57:29.047Z,6.60
2019-02-27T22:59:58.168Z,6.60
2019-02-27T23:02:27.918Z,6.60
2019-02-27T23:04:57.377Z,6.60
2019-02-27T23:07:26.830Z,6.50
2019-02-27T23:09:57.528Z,6.40
2019-02-27T23:12:27.607Z,6.30
2019-02-27T23:14:56.848Z,6.20
2019-02-27T23:17:26.667Z,6.20
2019-02-27T23:20:00.336Z,6.10
2019-02-27T23:22:29.695Z,6.10
2019-02-27T23:24:59.207Z,6.10
2019-02-27T23:27:28.230Z,6.00
2019-02-27T23:30:01.048Z,6.00
2019-02-27T23:32:30.475Z,6.00
2019-02-27T23:35:01.528Z,5.90
2019-02-27T23:37:30.742Z,5.80
2019-02-27T23:40:00.407Z,5.70
2019-02-27T23:42:35.988Z,5.60
2019-02-27T23:45:10.262Z,5.50
2019-02-27T23:47:39.930Z,5.50
2019-02-27T23:50:12.133Z,5.40
2019-02-27T23:52:41.367Z,5.30
2019-02-27T23:55:10.937Z,5.30
2019-02-27T23:57:42.167Z,5.20
